Time;durP1;ratioP1;P1;durP2;ratioP2;P2;SDS_P1;SDS_P2;PMS_P1;PMS_P2;Temp;Humidity;BMP_temperature;BMP_pressure;BME280_temperature;BME280_humidity;BME280_pressure;Samples;Min_cycle;Max_cycle;Signal;HPM_P1;HPM_P2
2021/08/10 00:01:51;;;;;;;3.50;2.73;;;16.30;96.00;;;;;;5086834;28;20442;-44
2021/08/10 00:04:17;;;;;;;5.70;2.93;;;16.30;96.00;;;;;;5099788;28;20480;-44
2021/08/10 00:06:43;;;;;;;4.20;3.80;;;16.30;95.80;;;;;;5100292;28;20272;-44
2021/08/10 00:09:08;;;;;;;4.60;3.37;;;16.30;96.00;;;;;;5100230;28;20439;-44
2021/08/10 00:11:34;;;;;;;3.10;2.80;;;16.30;96.40;;;;;;5099829;28;20434;-44
2021/08/10 00:14:00;;;;;;;3.60;2.73;;;16.30;96.10;;;;;;5100325;28;20196;-44
2021/08/10 00:16:27;;;;;;;3.90;3.40;;;16.30;96.20;;;;;;5099769;28;20447;-44
2021/08/10 00:18:56;;;;;;;5.53;3.77;;;16.20;96.20;;;;;;5087816;28;20501;-44
2021/08/10 00:21:22;;;;;;;4.20;3.07;;;16.30;96.40;;;;;;5114523;28;20437;-44
2021/08/10 00:23:48;;;;;;;3.80;3.30;;;16.20;96.40;;;;;;5119758;28;20569;-44
2021/08/10 00:26:14;;;;;;;4.43;3.20;;;16.20;96.50;;;;;;5119783;28;20211;-44
2021/08/10 00:28:40;;;;;;;5.83;3.20;;;16.10;96.70;;;;;;5120106;28;20807;-44
2021/08/10 00:31:06;;;;;;;3.80;3.40;;;16.10;96.80;;;;;;5120108;28;20525;-44
2021/08/10 00:33:32;;;;;;;4.67;3.43;;;16.10;96.90;;;;;;5119726;28;20514;-44
2021/08/10 00:35:58;;;;;;;4.83;3.00;;;16.10;97.00;;;;;;5120080;28;20249;-44
2021/08/10 00:38:25;;;;;;;3.50;3.07;;;16.10;97.20;;;;;;5119734;28;20710;-44
2021/08/10 00:40:52;;;;;;;4.67;3.43;;;16.10;97.10;;;;;;5119758;28;20867;-44
2021/08/10 00:43:37;;;;;;;4.30;3.40;;;16.10;97.10;;;;;;5101596;28;20460;-44
2021/08/10 00:46:05;;;;;;;4.33;3.23;;;16.10;97.20;;;;;;5101753;28;20835;-44
2021/08/10 00:48:31;;;;;;;4.97;3.23;;;16.00;97.30;;;;;;5119763;28;20512;-44
2021/08/10 00:50:57;;;;;;;3.77;3.30;;;16.00;97.40;;;;;;5119597;28;20461;-44
2021/08/10 00:53:23;;;;;;;3.30;2.97;;;16.00;97.40;;;;;;5119522;28;20256;-44
2021/08/10 00:55:49;;;;;;;3.60;3.30;;;16.00;97.30;;;;;;5119566;28;20252;-44
2021/08/10 00:58:15;;;;;;;4.63;3.67;;;16.00;97.30;;;;;;5101616;28;20839;-44
2021/08/10 01:00:40;;;;;;;6.03;3.90;;;15.90;97.30;;;;;;5119303;28;20184;-44
2021/08/10 01:03:06;;;;;;;4.27;3.47;;;15.90;97.50;;;;;;5101438;28;20465;-44
2021/08/10 01:05:32;;;;;;;3.90;3.27;;;15.80;97.70;;;;;;5119656;28;20512;-44
2021/08/10 01:08:10;;;;;;;4.10;3.70;;;15.80;97.90;;;;;;5119544;28;20747;-44
2021/08/10 01:10:41;;;;;;;4.03;3.33;;;15.80;98.10;;;;;;5114621;28;20190;-44
2021/08/10 01:13:32;;;;;;;4.83;3.50;;;15.80;98.10;;;;;;5098882;28;20432;-44
2021/08/10 01:16:22;;;;;;;3.60;3.30;;;15.80;98.30;;;;;;5099462;28;20429;-44
2021/08/10 01:19:09;;;;;;;4.17;3.77;;;15.70;98.30;;;;;;5079840;28;20483;-44
2021/08/10 01:21:38;;;;;;;4.00;3.57;;;15.70;98.50;;;;;;5091068;28;20448;-44
2021/08/10 01:24:11;;;;;;;3.77;3.37;;;15.70;98.60;;;;;;5100618;28;20488;-44
2021/08/10 01:27:14;;;;;;;3.57;3.27;;;15.70;98.60;;;;;;5101147;28;20541;-44
2021/08/10 01:30:04;;;;;;;5.37;4.00;;;15.70;98.50;;;;;;5118339;28;20409;-44
2021/08/10 01:32:31;;;;;;;4.80;3.93;;;15.60;98.50;;;;;;5118847;28;20683;-43
2021/08/10 01:34:57;;;;;;;4.07;3.43;;;15.60;98.50;;;;;;5118114;28;20408;-44
2021/08/10 01:37:26;;;;;;;3.70;3.40;;;15.60;98.60;;;;;;5118043;28;20406;-44
2021/08/10 01:39:58;;;;;;;3.47;2.93;;;15.60;98.70;;;;;;5100423;28;20477;-44
2021/08/10 01:42:25;;;;;;;4.70;3.53;;;15.60;98.70;;;;;;5101025;28;20444;-44
2021/08/10 01:44:52;;;;;;;4.10;3.77;;;15.60;98.80;;;;;;5100189;28;20472;-44
2021/08/10 01:47:18;;;;;;;4.23;3.17;;;15.50;98.80;;;;;;5101114;28;20414;-44
2021/08/10 01:49:44;;;;;;;3.83;2.97;;;15.50;98.90;;;;;;5100592;28;20413;-44
2021/08/10 01:52:14;;;;;;;5.20;3.27;;;15.50;98.90;;;;;;5117997;28;20417;-44
2021/08/10 01:54:41;;;;;;;6.70;3.60;;;15.50;99.00;;;;;;5093143;28;20414;-43
2021/08/10 01:57:07;;;;;;;5.13;3.63;;;15.50;99.00;;;;;;5098201;28;20517;-44
2021/08/10 01:59:33;;;;;;;3.47;3.17;;;15.50;99.10;;;;;;5093222;28;20537;-44
2021/08/10 02:01:58;;;;;;;4.20;3.67;;;15.50;99.10;;;;;;5080040;28;20770;-44
2021/08/10 02:04:25;;;;;;;3.57;3.27;;;15.40;99.10;;;;;;5080237;28;20794;-44
2021/08/10 02:06:51;;;;;;;4.70;3.60;;;15.40;99.20;;;;;;5080470;28;20206;-44
2021/08/10 02:09:18;;;;;;;4.40;3.50;;;15.50;99.20;;;;;;5080398;28;20487;-44
2021/08/10 02:11:44;;;;;;;5.20;3.47;;;15.50;99.10;;;;;;5080123;28;20422;-44
2021/08/10 02:14:10;;;;;;;4.00;3.60;;;15.40;99.10;;;;;;5080345;28;20414;-44
2021/08/10 02:16:38;;;;;;;3.40;3.10;;;15.30;99.20;;;;;;5080281;28;20525;-44
2021/08/10 02:19:03;;;;;;;4.40;3.67;;;15.30;99.30;;;;;;5092325;28;20851;-44
2021/08/10 02:21:38;;;;;;;5.23;3.47;;;15.30;99.40;;;;;;5104365;28;20475;-44
2021/08/10 02:24:07;;;;;;;3.97;3.30;;;15.30;99.40;;;;;;5118279;28;20245;-44
2021/08/10 02:26:39;;;;;;;4.37;3.97;;;15.30;99.30;;;;;;5118262;28;20428;-44
2021/08/10 02:29:05;;;;;;;4.90;3.30;;;15.30;99.30;;;;;;5083473;28;20406;-44
2021/08/10 02:31:31;;;;;;;3.70;3.37;;;15.30;99.40;;;;;;5117678;28;20425;-44
2021/08/10 02:33:57;;;;;;;6.77;4.20;;;15.20;99.30;;;;;;5100191;28;20183;-44
2021/08/10 02:36:23;;;;;;;3.67;3.30;;;15.20;99.30;;;;;;5100408;28;20870;-44
2021/08/10 02:38:49;;;;;;;3.53;3.20;;;15.20;99.30;;;;;;5099927;28;20417;-44
2021/08/10 02:41:17;;;;;;;5.63;3.87;;;15.20;99.20;;;;;;5099806;28;20425;-44
2021/08/10 02:43:43;;;;;;;3.70;3.40;;;15.20;99.10;;;;;;5099983;28;20477;-44
2021/08/10 02:46:09;;;;;;;3.40;3.10;;;15.10;99.00;;;;;;5100041;28;20425;-44
2021/08/10 02:48:35;;;;;;;7.07;3.80;;;15.10;99.30;;;;;;5120976;28;20428;-44
2021/08/10 02:51:00;;;;;;;3.53;3.23;;;15.00;99.50;;;;;;5121731;28;20188;-44
2021/08/10 02:53:27;;;;;;;4.00;3.60;;;15.00;99.50;;;;;;5122266;28;20186;-44
2021/08/10 02:56:08;;;;;;;4.20;3.80;;;15.00;99.50;;;;;;5104149;28;20902;-44
2021/08/10 02:58:39;;;;;;;4.50;3.93;;;15.00;99.60;;;;;;5104080;28;20459;-44
2021/08/10 03:01:08;;;;;;;3.63;3.33;;;14.90;99.70;;;;;;5086911;28;20429;-44
2021/08/10 03:03:34;;;;;;;4.37;3.70;;;14.90;99.70;;;;;;5103716;28;20460;-44
2021/08/10 03:06:02;;;;;;;4.10;3.30;;;14.90;99.70;;;;;;5121784;28;20432;-44
2021/08/10 03:08:44;;;;;;;6.20;3.53;;;14.90;99.80;;;;;;5102248;28;20406;-44
2021/08/10 03:11:10;;;;;;;4.10;3.70;;;14.90;99.90;;;;;;5101417;28;20426;-44
2021/08/10 03:13:38;;;;;;;3.70;3.10;;;14.90;99.90;;;;;;5083056;28;20418;-44
2021/08/10 03:16:06;;;;;;;5.47;3.47;;;14.90;99.90;;;;;;5100813;28;20461;-44
2021/08/10 03:18:35;;;;;;;4.30;3.90;;;14.90;99.90;;;;;;5083158;28;20414;-44
2021/08/10 03:21:01;;;;;;;4.50;3.40;;;14.90;99.90;;;;;;5066700;28;20430;-44
2021/08/10 03:23:31;;;;;;;3.77;3.47;;;14.90;99.90;;;;;;5101008;28;20736;-44
2021/08/10 03:25:57;;;;;;;6.10;3.63;;;14.90;99.90;;;;;;5082691;28;20429;-43
2021/08/10 03:28:27;;;;;;;3.47;3.17;;;14.90;99.90;;;;;;5082962;28;20543;-44
2021/08/10 03:30:55;;;;;;;4.30;3.50;;;14.90;99.90;;;;;;5082821;28;20512;-44
2021/08/10 03:33:25;;;;;;;4.43;3.30;;;14.90;99.90;;;;;;5083199;28;20413;-44
2021/08/10 03:35:51;;;;;;;6.00;3.60;;;14.90;99.90;;;;;;5082758;28;20422;-44
2021/08/10 03:38:19;;;;;;;4.00;3.70;;;14.90;99.80;;;;;;5082888;28;20422;-44
2021/08/10 03:40:44;;;;;;;6.10;3.60;;;14.90;99.80;;;;;;5082944;28;20835;-44
2021/08/10 03:43:10;;;;;;;4.10;3.70;;;14.90;99.80;;;;;;5099120;28;20472;-44
2021/08/10 03:45:37;;;;;;;4.73;4.23;;;14.90;99.80;;;;;;5099465;28;20187;-44
2021/08/10 03:48:03;;;;;;;3.80;3.40;;;14.90;99.70;;;;;;5081555;28;20190;-44
2021/08/10 03:50:29;;;;;;;3.93;3.47;;;14.80;99.80;;;;;;5099418;28;20521;-43
2021/08/10 03:52:55;;;;;;;4.03;3.50;;;14.90;99.90;;;;;;5081737;28;20422;-43
2021/08/10 03:55:22;;;;;;;4.90;3.60;;;14.90;99.90;;;;;;5099477;28;20461;-44
2021/08/10 03:57:49;;;;;;;5.73;3.90;;;14.90;99.80;;;;;;5098909;28;20188;-44
2021/08/10 04:00:16;;;;;;;3.70;3.40;;;14.90;99.80;;;;;;5065639;28;20833;-44
2021/08/10 04:02:42;;;;;;;4.30;3.90;;;14.90;99.80;;;;;;5082081;28;20741;-45
2021/08/10 04:05:10;;;;;;;5.93;4.50;;;14.80;99.60;;;;;;5082076;28;20758;-45
2021/08/10 04:07:37;;;;;;;9.20;6.70;;;14.80;99.70;;;;;;5096774;28;20722;-45
2021/08/10 04:10:04;;;;;;;6.23;4.77;;;14.80;99.20;;;;;;5107928;28;20437;-45
2021/08/10 04:12:30;;;;;;;6.90;4.60;;;14.70;99.40;;;;;;5120749;28;20421;-45
2021/08/10 04:14:55;;;;;;;5.03;4.07;;;14.60;99.70;;;;;;5102157;28;20417;-45
2021/08/10 04:17:23;;;;;;;5.03;4.50;;;14.50;99.90;;;;;;5120581;28;20171;-45
2021/08/10 04:19:52;;;;;;;5.63;4.73;;;14.50;99.90;;;;;;5119466;28;20268;-45
2021/08/10 04:22:19;;;;;;;6.43;4.40;;;14.50;99.90;;;;;;5106228;28;20433;-45
2021/08/10 04:24:45;;;;;;;5.30;4.60;;;14.60;99.90;;;;;;5078867;28;20584;-45
2021/08/10 04:27:15;;;;;;;4.13;3.70;;;14.70;99.90;;;;;;5106131;28;20490;-46
2021/08/10 04:29:41;;;;;;;6.87;4.30;;;14.80;99.90;;;;;;5099421;28;20980;-45
2021/08/10 04:32:07;;;;;;;5.13;3.77;;;14.90;99.90;;;;;;5108779;28;21014;-45
2021/08/10 04:34:34;;;;;;;5.40;4.30;;;15.00;99.90;;;;;;5110118;28;20831;-45
2021/08/10 04:37:00;;;;;;;10.20;4.50;;;15.10;99.90;;;;;;5119210;28;20504;-45
2021/08/10 04:39:26;;;;;;;4.33;3.90;;;15.20;99.90;;;;;;5119517;28;20520;-45
2021/08/10 04:41:58;;;;;;;4.63;4.23;;;15.20;99.90;;;;;;5114056;28;20454;-45
2021/08/10 04:44:24;;;;;;;4.23;3.83;;;15.20;99.90;;;;;;5104972;28;20763;-46
2021/08/10 04:46:51;;;;;;;4.50;3.63;;;15.30;99.90;;;;;;5107500;28;20505;-46
2021/08/10 04:49:17;;;;;;;4.77;3.87;;;15.40;99.90;;;;;;5115126;28;20421;-46
2021/08/10 04:51:43;;;;;;;4.50;3.63;;;15.40;99.90;;;;;;5112986;28;20432;-45
2021/08/10 04:54:15;;;;;;;5.43;4.03;;;15.50;99.90;;;;;;5109428;28;20426;-46
2021/08/10 04:56:40;;;;;;;4.40;4.00;;;15.60;99.80;;;;;;5086867;28;20527;-46
2021/08/10 04:59:08;;;;;;;5.33;4.00;;;15.70;99.70;;;;;;5109947;28;20560;-46
2021/08/10 05:01:34;;;;;;;4.50;3.73;;;15.70;99.60;;;;;;5088394;28;20195;-46
2021/08/10 05:04:00;;;;;;;3.90;3.50;;;15.80;99.50;;;;;;5114796;28;20469;-46
2021/08/10 05:06:27;;;;;;;4.93;3.70;;;15.90;99.40;;;;;;5072471;28;20496;-46
2021/08/10 05:08:53;;;;;;;4.83;4.23;;;15.90;99.10;;;;;;5109129;28;20429;-46
2021/08/10 05:11:20;;;;;;;5.93;3.87;;;15.80;99.00;;;;;;5108684;28;20433;-46
2021/08/10 05:13:48;;;;;;;6.90;4.33;;;15.80;99.20;;;;;;5111929;28;20172;-46
2021/08/10 05:16:15;;;;;;;4.47;3.67;;;15.80;99.50;;;;;;5098255;28;20473;-46
2021/08/10 05:18:42;;;;;;;4.70;4.30;;;15.80;99.60;;;;;;5119589;28;20482;-46
2021/08/10 05:21:08;;;;;;;4.53;3.60;;;16.00;99.60;;;;;;5114184;28;20442;-46
2021/08/10 05:23:35;;;;;;;6.00;4.20;;;16.10;99.40;;;;;;5096846;28;20243;-46
2021/08/10 05:26:00;;;;;;;3.50;3.20;;;16.20;99.20;;;;;;5097322;28;20470;-46
2021/08/10 05:28:26;;;;;;;3.77;3.47;;;16.30;98.90;;;;;;5078016;28;20445;-45
2021/08/10 05:30:52;;;;;;;4.23;3.70;;;16.40;98.60;;;;;;5096605;28;20271;-45
2021/08/10 05:33:17;;;;;;;4.87;3.70;;;16.50;98.40;;;;;;5095498;28;20176;-45
2021/08/10 05:35:44;;;;;;;4.97;3.67;;;16.70;98.30;;;;;;5095582;28;20469;-45
2021/08/10 05:38:09;;;;;;;4.20;3.80;;;16.70;98.30;;;;;;5094407;28;20236;-46
2021/08/10 05:40:35;;;;;;;4.20;3.80;;;16.80;98.40;;;;;;5094864;28;20832;-46
2021/08/10 05:43:01;;;;;;;3.63;3.30;;;16.90;98.60;;;;;;5094926;28;20196;-45
2021/08/10 05:45:27;;;;;;;4.47;4.07;;;16.90;98.10;;;;;;5092890;28;20941;-45
2021/08/10 05:47:52;;;;;;;4.07;3.60;;;17.00;97.80;;;;;;5076329;28;20192;-45
2021/08/10 05:50:18;;;;;;;4.33;3.47;;;17.10;97.70;;;;;;5096038;28;20269;-46
2021/08/10 05:52:44;;;;;;;5.43;4.00;;;17.20;97.60;;;;;;5097322;28;20173;-45
2021/08/10 05:55:10;;;;;;;4.37;3.97;;;17.30;97.30;;;;;;5096684;28;20432;-45
2021/08/10 05:57:36;;;;;;;4.20;3.80;;;17.30;97.10;;;;;;5095440;28;20470;-46
2021/08/10 06:00:02;;;;;;;5.60;3.77;;;17.40;96.80;;;;;;5095910;28;20441;-46
2021/08/10 06:02:27;;;;;;;6.47;4.23;;;17.50;96.70;;;;;;5096601;28;20168;-46
2021/08/10 06:04:53;;;;;;;6.50;4.10;;;17.50;96.60;;;;;;5095907;28;20875;-45
2021/08/10 06:07:19;;;;;;;5.10;3.67;;;17.60;96.50;;;;;;5096091;28;20172;-45
2021/08/10 06:09:45;;;;;;;4.90;3.63;;;17.70;96.50;;;;;;5096742;28;20176;-46
2021/08/10 06:12:10;;;;;;;3.83;3.37;;;17.80;96.50;;;;;;5097569;28;20245;-45
2021/08/10 06:14:37;;;;;;;3.40;3.10;;;17.90;96.50;;;;;;5097273;28;20743;-46
2021/08/10 06:17:03;;;;;;;6.17;3.97;;;18.00;96.40;;;;;;5097291;28;20271;-46
2021/08/10 06:19:29;;;;;;;4.87;3.93;;;18.10;96.20;;;;;;5097031;28;20521;-45
2021/08/10 06:21:55;;;;;;;3.83;3.20;;;18.20;96.00;;;;;;5096756;28;20515;-46
2021/08/10 06:24:20;;;;;;;4.47;3.40;;;18.40;95.90;;;;;;5096324;28;20608;-46
2021/08/10 06:26:46;;;;;;;4.40;3.50;;;18.50;95.80;;;;;;5078728;28;20525;-46
2021/08/10 06:29:12;;;;;;;3.97;3.57;;;18.60;95.60;;;;;;5096788;28;20454;-46
2021/08/10 06:31:38;;;;;;;4.27;3.50;;;18.80;95.40;;;;;;5096019;28;20203;-46
2021/08/10 06:34:03;;;;;;;4.20;3.80;;;18.90;94.90;;;;;;5096626;28;20421;-46
2021/08/10 06:36:29;;;;;;;3.90;3.33;;;18.90;93.90;;;;;;5078950;28;20451;-46
2021/08/10 06:38:55;;;;;;;5.07;3.40;;;19.00;93.50;;;;;;5096348;28;20172;-46
2021/08/10 06:41:21;;;;;;;5.50;4.10;;;19.10;93.60;;;;;;5096651;28;20180;-46
2021/08/10 06:43:46;;;;;;;3.40;3.10;;;19.20;93.50;;;;;;5079136;28;20498;-46
2021/08/10 06:46:12;;;;;;;5.33;4.20;;;19.40;93.40;;;;;;5096118;28;20203;-46
2021/08/10 06:48:38;;;;;;;4.30;3.27;;;19.60;92.80;;;;;;5078284;28;20188;-46
2021/08/10 06:51:04;;;;;;;4.20;3.33;;;19.60;92.90;;;;;;5094599;28;20189;-45
2021/08/10 06:53:30;;;;;;;3.63;3.30;;;19.80;93.00;;;;;;5075230;28;20774;-46
2021/08/10 06:55:55;;;;;;;3.60;2.93;;;20.00;92.90;;;;;;5095648;28;20457;-46
2021/08/10 06:58:21;;;;;;;4.27;3.10;;;20.30;92.80;;;;;;5078252;28;20181;-47
2021/08/10 07:00:47;;;;;;;3.90;3.40;;;20.50;91.50;;;;;;5095160;28;20246;-46
2021/08/10 07:03:13;;;;;;;3.97;3.50;;;20.90;91.60;;;;;;5093050;28;20977;-46
2021/08/10 07:05:38;;;;;;;5.60;3.30;;;21.20;90.40;;;;;;5094583;28;20397;-46
2021/08/10 07:08:04;;;;;;;3.73;2.80;;;21.30;90.70;;;;;;5094648;28;20566;-46
2021/08/10 07:10:30;;;;;;;3.90;3.20;;;21.70;90.20;;;;;;5094686;28;20605;-46
2021/08/10 07:12:56;;;;;;;4.37;3.97;;;21.70;89.70;;;;;;5076685;28;20510;-46
2021/08/10 07:15:21;;;;;;;3.50;3.20;;;21.90;88.50;;;;;;5077359;28;20234;-46
2021/08/10 07:17:47;;;;;;;4.10;3.30;;;22.20;88.20;;;;;;5095605;28;20428;-46
2021/08/10 07:20:13;;;;;;;4.63;3.57;;;22.40;86.30;;;;;;5096579;28;20191;-46
2021/08/10 07:22:39;;;;;;;3.07;2.77;;;22.40;85.80;;;;;;5096632;28;20676;-46
2021/08/10 07:25:05;;;;;;;2.73;2.10;;;22.40;86.40;;;;;;5077431;28;20576;-46
2021/08/10 07:27:31;;;;;;;4.27;2.57;;;22.40;86.00;;;;;;5095144;28;20518;-46
2021/08/10 07:29:57;;;;;;;3.17;2.87;;;22.50;85.70;;;;;;5094489;28;20561;-46
2021/08/10 07:32:23;;;;;;;5.90;2.97;;;22.60;85.60;;;;;;5094159;28;20689;-46
2021/08/10 07:34:49;;;;;;;3.53;2.80;;;22.80;85.30;;;;;;5098029;28;20172;-46
2021/08/10 07:37:16;;;;;;;2.83;2.50;;;22.70;85.30;;;;;;5099702;28;20184;-46
2021/08/10 07:39:41;;;;;;;3.37;2.57;;;22.90;86.20;;;;;;5098415;28;20842;-46
2021/08/10 07:42:07;;;;;;;3.33;3.00;;;22.90;85.00;;;;;;5099164;28;20406;-46
2021/08/10 07:44:33;;;;;;;4.90;2.80;;;23.20;83.90;;;;;;5099305;28;20196;-46
2021/08/10 07:46:58;;;;;;;3.23;2.73;;;23.30;84.30;;;;;;5099418;28;20187;-46
2021/08/10 07:49:24;;;;;;;3.80;2.90;;;23.30;84.20;;;;;;5099119;28;20501;-46
2021/08/10 07:51:50;;;;;;;3.50;2.50;;;23.40;82.50;;;;;;5099039;28;20176;-46
2021/08/10 07:54:16;;;;;;;5.23;2.50;;;23.40;82.10;;;;;;5099380;28;20237;-46
2021/08/10 07:56:41;;;;;;;3.50;2.13;;;23.20;82.00;;;;;;5098398;28;20531;-46
2021/08/10 07:59:07;;;;;;;2.57;2.20;;;23.40;81.20;;;;;;5098829;28;20221;-46
2021/08/10 08:01:33;;;;;;;3.33;2.80;;;23.40;78.40;;;;;;5099117;28;20204;-46
2021/08/10 08:03:58;;;;;;;2.87;2.47;;;23.50;79.90;;;;;;5081213;28;20372;-46
2021/08/10 08:06:24;;;;;;;6.53;2.77;;;23.50;81.80;;;;;;5099168;28;20422;-45
2021/08/10 08:08:49;;;;;;;4.67;2.90;;;23.60;81.10;;;;;;5099655;28;20168;-46
2021/08/10 08:11:15;;;;;;;3.70;2.57;;;23.70;80.60;;;;;;5097813;28;20179;-46
2021/08/10 08:13:41;;;;;;;4.37;2.50;;;23.50;80.10;;;;;;5099267;28;20263;-46
2021/08/10 08:16:07;;;;;;;3.37;2.70;;;23.50;81.20;;;;;;5080299;28;20836;-46
2021/08/10 08:18:32;;;;;;;6.43;2.90;;;23.70;82.40;;;;;;5098941;28;20215;-46
2021/08/10 08:20:58;;;;;;;4.37;3.40;;;23.90;82.40;;;;;;5098850;28;20245;-46
2021/08/10 08:23:28;;;;;;;2.93;2.63;;;24.10;81.60;;;;;;5098949;28;20680;-46
2021/08/10 08:25:55;;;;;;;4.33;3.13;;;24.30;80.60;;;;;;5079452;28;20474;-46
2021/08/10 08:28:21;;;;;;;3.10;2.53;;;24.10;79.70;;;;;;5097595;28;20692;-46
2021/08/10 08:30:47;;;;;;;3.70;2.90;;;23.60;79.80;;;;;;5097719;28;20418;-46
2021/08/10 08:33:13;;;;;;;2.37;2.17;;;23.50;80.10;;;;;;5098096;28;20418;-46
2021/08/10 08:35:40;;;;;;;2.83;2.63;;;23.60;80.50;;;;;;5097464;28;20747;-46
2021/08/10 08:38:10;;;;;;;3.10;2.80;;;23.60;81.50;;;;;;5079510;28;20989;-46
2021/08/10 08:40:38;;;;;;;3.10;2.43;;;23.70;82.20;;;;;;5098346;28;20418;-46
2021/08/10 08:43:04;;;;;;;4.87;2.77;;;24.10;81.50;;;;;;5099214;28;20418;-46
2021/08/10 08:45:30;;;;;;;3.00;2.13;;;24.50;77.80;;;;;;5099077;28;20437;-46
2021/08/10 08:47:57;;;;;;;4.60;2.70;;;24.10;75.00;;;;;;5098538;28;20418;-45
2021/08/10 08:50:23;;;;;;;2.50;1.90;;;24.20;73.60;;;;;;5081456;28;20427;-46
2021/08/10 08:52:53;;;;;;;2.90;2.20;;;25.00;74.30;;;;;;5098446;28;20437;-46
2021/08/10 08:55:22;;;;;;;4.20;2.33;;;25.80;71.40;;;;;;5079951;28;20434;-46
2021/08/10 08:57:48;;;;;;;2.73;2.20;;;26.10;69.40;;;;;;5098548;28;20820;-46
2021/08/10 09:00:15;;;;;;;2.53;2.27;;;25.80;70.20;;;;;;5098047;28;20704;-46
2021/08/10 09:02:41;;;;;;;3.13;2.10;;;25.10;69.60;;;;;;5098862;28;20421;-46
2021/08/10 09:05:08;;;;;;;2.77;2.03;;;24.80;66.90;;;;;;5097555;28;20466;-46
2021/08/10 09:07:34;;;;;;;4.40;2.20;;;24.50;68.60;;;;;;5098401;28;20441;-46
2021/08/10 09:10:11;;;;;;;2.93;2.33;;;24.30;69.70;;;;;;5098243;28;20434;-46
2021/08/10 09:12:45;;;;;;;2.67;2.07;;;24.70;68.70;;;;;;5096994;28;20171;-46
2021/08/10 09:15:27;;;;;;;3.30;2.53;;;24.70;68.90;;;;;;5096769;28;20702;-45
2021/08/10 09:17:53;;;;;;;3.47;2.33;;;24.50;69.00;;;;;;5096783;28;20413;-46
2021/08/10 09:20:21;;;;;;;3.17;2.87;;;24.50;69.90;;;;;;5078324;28;20685;-46
2021/08/10 09:22:50;;;;;;;4.03;2.10;;;24.80;68.80;;;;;;5097031;28;20204;-46
2021/08/10 09:25:16;;;;;;;4.57;2.40;;;25.30;69.20;;;;;;5062272;28;20505;-46
2021/08/10 09:27:43;;;;;;;4.27;2.73;;;25.10;67.50;;;;;;5097205;28;20468;-46
2021/08/10 09:30:25;;;;;;;2.83;2.57;;;24.80;68.20;;;;;;5114546;28;20433;-46
2021/08/10 09:32:51;;;;;;;3.90;2.40;;;25.10;70.60;;;;;;5117268;28;20494;-45
2021/08/10 09:35:18;;;;;;;3.43;2.50;;;25.90;67.80;;;;;;5117224;28;20429;-46
2021/08/10 09:38:08;;;;;;;3.60;2.40;;;26.60;67.10;;;;;;5117189;28;20179;-44
2021/08/10 09:40:45;;;;;;;2.93;2.63;;;27.00;64.70;;;;;;5099936;28;20437;-44
2021/08/10 09:43:21;;;;;;;5.87;2.90;;;27.20;64.50;;;;;;5098409;28;20408;-44
2021/08/10 09:45:48;;;;;;;3.27;2.73;;;26.70;60.30;;;;;;5116378;28;20489;-46
2021/08/10 09:48:17;;;;;;;4.90;2.20;;;26.10;62.60;;;;;;5117356;28;20883;-46
2021/08/10 09:50:44;;;;;;;6.27;2.50;;;26.60;62.90;;;;;;5098201;28;20794;-46
2021/08/10 09:53:20;;;;;;;5.47;3.23;;;27.30;61.10;;;;;;5098543;28;20748;-45
2021/08/10 09:55:56;;;;;;;3.20;2.67;;;27.00;61.80;;;;;;5115949;28;20435;-45
2021/08/10 09:58:22;;;;;;;4.43;2.83;;;27.10;60.60;;;;;;5116604;28;20816;-45
2021/08/10 10:00:50;;;;;;;4.57;2.97;;;27.00;61.80;;;;;;5116119;28;20792;-46
2021/08/10 10:03:20;;;;;;;4.40;3.00;;;26.80;63.60;;;;;;5115887;28;20732;-45
2021/08/10 10:05:46;;;;;;;3.70;2.50;;;26.40;64.20;;;;;;5115235;28;20426;-46
2021/08/10 10:08:25;;;;;;;3.13;2.83;;;26.60;64.40;;;;;;5115497;28;20424;-46
2021/08/10 10:10:53;;;;;;;3.87;2.60;;;26.30;64.50;;;;;;5097429;28;20468;-45
2021/08/10 10:13:20;;;;;;;3.50;2.83;;;26.80;65.00;;;;;;5095521;28;20411;-45
2021/08/10 10:15:47;;;;;;;3.20;2.50;;;26.40;65.50;;;;;;5093878;28;20816;-45
2021/08/10 10:18:13;;;;;;;3.10;2.80;;;26.70;64.30;;;;;;5092965;28;20423;-45
2021/08/10 10:20:45;;;;;;;5.17;3.37;;;26.60;64.00;;;;;;5092890;28;20430;-45
2021/08/10 10:23:17;;;;;;;3.73;2.87;;;26.30;64.10;;;;;;5094056;28;20410;-45
2021/08/10 10:25:42;;;;;;;5.17;3.00;;;26.90;62.80;;;;;;5094354;28;20493;-46
2021/08/10 10:28:08;;;;;;;5.13;2.90;;;27.10;61.10;;;;;;5095832;28;20406;-45
2021/08/10 10:30:34;;;;;;;4.10;2.87;;;27.30;61.10;;;;;;5095444;28;20187;-45
2021/08/10 10:33:00;;;;;;;3.23;2.90;;;26.90;62.70;;;;;;5077534;28;20180;-45
2021/08/10 10:35:26;;;;;;;4.33;3.10;;;27.10;60.00;;;;;;5095512;28;20434;-45
2021/08/10 10:37:53;;;;;;;3.00;2.60;;;27.00;61.60;;;;;;5096542;28;20181;-45
2021/08/10 10:40:20;;;;;;;3.70;2.73;;;27.60;60.50;;;;;;5078108;28;20529;-45
2021/08/10 10:42:48;;;;;;;5.80;2.70;;;28.20;59.40;;;;;;5097221;28;20430;-45
2021/08/10 10:45:37;;;;;;;4.10;2.60;;;28.70;57.50;;;;;;5078419;28;20481;-46
2021/08/10 10:48:25;;;;;;;3.23;2.60;;;29.80;56.90;;;;;;5096678;28;20411;-45
2021/08/10 10:51:02;;;;;;;3.93;3.10;;;29.20;57.00;;;;;;5085186;28;20417;-47
2021/08/10 10:53:28;;;;;;;2.93;2.63;;;29.10;55.00;;;;;;5116350;28;20409;-47
2021/08/10 10:55:55;;;;;;;4.37;3.20;;;29.40;55.70;;;;;;5115398;28;20502;-47
2021/08/10 10:58:28;;;;;;;3.30;3.00;;;29.60;54.70;;;;;;5114840;28;20176;-46
2021/08/10 11:01:18;;;;;;;3.30;3.00;;;29.00;54.50;;;;;;5114798;28;20460;-47
2021/08/10 11:04:08;;;;;;;3.23;2.80;;;28.80;54.80;;;;;;5084106;28;20469;-47
2021/08/10 11:06:34;;;;;;;2.93;2.63;;;29.30;54.50;;;;;;5116876;28;20433;-47
2021/08/10 11:09:02;;;;;;;2.90;2.50;;;30.20;53.80;;;;;;5118877;28;20813;-47
2021/08/10 11:11:51;;;;;;;4.43;3.13;;;30.90;52.30;;;;;;5120448;28;20433;-47
2021/08/10 11:14:35;;;;;;;6.00;3.33;;;29.90;51.90;;;;;;5121106;28;20425;-47
2021/08/10 11:17:12;;;;;;;3.00;2.70;;;30.40;52.50;;;;;;5120786;28;20424;-47
2021/08/10 11:19:46;;;;;;;3.93;3.53;;;30.10;52.10;;;;;;5120721;28;20399;-46
2021/08/10 11:22:15;;;;;;;4.70;3.37;;;30.90;50.20;;;;;;5102664;28;20429;-47
2021/08/10 11:24:51;;;;;;;3.60;3.00;;;30.50;51.20;;;;;;5117965;28;20477;-47
2021/08/10 11:27:33;;;;;;;3.20;2.90;;;29.70;51.00;;;;;;5118018;28;20375;-46
2021/08/10 11:30:00;;;;;;;3.73;3.33;;;29.80;51.50;;;;;;5118103;28;20587;-47
2021/08/10 11:32:49;;;;;;;4.20;3.33;;;29.80;50.90;;;;;;5099827;28;20722;-47
2021/08/10 11:35:27;;;;;;;3.40;3.00;;;29.50;51.50;;;;;;5083741;28;20425;-47
2021/08/10 11:38:18;;;;;;;4.07;2.97;;;29.30;51.90;;;;;;5120974;28;20491;-47
2021/08/10 11:40:59;;;;;;;3.20;2.90;;;30.50;51.70;;;;;;5120817;28;20430;-47
2021/08/10 11:43:46;;;;;;;4.37;3.30;;;31.80;51.20;;;;;;5120307;28;20462;-47
2021/08/10 11:46:17;;;;;;;3.60;3.30;;;32.20;49.40;;;;;;5120300;28;20425;-47
2021/08/10 11:48:47;;;;;;;3.10;2.80;;;34.10;48.90;;;;;;5120527;28;20429;-47
2021/08/10 11:51:25;;;;;;;3.30;2.83;;;35.20;46.50;;;;;;5118856;28;20437;-47
2021/08/10 11:53:56;;;;;;;3.50;3.20;;;35.20;44.00;;;;;;5099369;28;20421;-47
2021/08/10 11:56:37;;;;;;;3.27;2.97;;;34.70;45.30;;;;;;5117010;28;20441;-47
2021/08/10 11:59:05;;;;;;;3.27;2.97;;;35.60;45.20;;;;;;5116600;28;20661;-46
2021/08/10 12:01:35;;;;;;;2.90;2.70;;;36.60;44.10;;;;;;5118541;28;20426;-47
2021/08/10 12:04:15;;;;;;;3.13;2.83;;;37.30;42.50;;;;;;5119293;28;20886;-47
2021/08/10 12:06:43;;;;;;;4.77;2.83;;;38.30;42.20;;;;;;5119114;28;20449;-46
2021/08/10 12:09:11;;;;;;;3.87;2.43;;;38.90;41.50;;;;;;5118470;28;20395;-47
2021/08/10 12:11:38;;;;;;;3.27;2.73;;;39.30;40.60;;;;;;5117654;28;20720;-47
2021/08/10 12:14:10;;;;;;;3.10;2.80;;;39.80;40.40;;;;;;5118059;28;20706;-47
2021/08/10 12:16:36;;;;;;;3.67;3.00;;;39.20;39.70;;;;;;5118197;28;20432;-47
2021/08/10 12:19:02;;;;;;;2.63;2.43;;;39.10;40.80;;;;;;5099712;28;20433;-47
2021/08/10 12:21:41;;;;;;;3.90;3.13;;;39.30;39.80;;;;;;5117813;28;20440;-47
2021/08/10 12:24:07;;;;;;;3.10;2.87;;;38.80;39.00;;;;;;5118808;28;20466;-47
2021/08/10 12:26:33;;;;;;;5.57;3.43;;;38.30;38.70;;;;;;5118101;28;20491;-47
2021/08/10 12:29:00;;;;;;;6.93;4.03;;;37.00;40.40;;;;;;5107768;28;20448;-47
2021/08/10 12:31:30;;;;;;;3.80;3.47;;;36.10;41.60;;;;;;5118873;28;20282;-48
2021/08/10 12:33:57;;;;;;;4.63;3.67;;;35.80;41.10;;;;;;5096599;28;20427;-47
2021/08/10 12:36:23;;;;;;;5.13;3.67;;;35.60;41.80;;;;;;5096724;28;20401;-47
2021/08/10 12:38:51;;;;;;;4.27;3.50;;;35.80;42.50;;;;;;5098144;28;20464;-48
2021/08/10 12:41:21;;;;;;;11.60;6.57;;;36.50;41.30;;;;;;5098213;28;20405;-48
2021/08/10 12:43:49;;;;;;;5.83;3.97;;;36.80;41.60;;;;;;5096034;28;20480;-48
2021/08/10 12:46:35;;;;;;;5.23;4.23;;;36.50;41.90;;;;;;5111031;28;20724;-48
2021/08/10 12:49:11;;;;;;;6.20;5.30;;;36.60;41.60;;;;;;5100125;28;20677;-48
2021/08/10 12:51:50;;;;;;;3.83;3.53;;;36.70;41.20;;;;;;5099347;28;20436;-48
2021/08/10 12:54:16;;;;;;;4.87;4.07;;;37.70;39.60;;;;;;5113742;28;20421;-46
2021/08/10 12:56:43;;;;;;;7.83;4.80;;;38.40;40.20;;;;;;5117531;28;20714;-46